THA112 VTBS-VTSP
Flight info
| Callsign | THA112 |
|---|---|
| Flight time | 1h 6m |
| Altitude | 38000 |
| Route | VANKO1E VANKO Y8 SAVSA SAVSA1D |
| Aircraft | B772/H-SDE2E3FGHIJ5LORVWXY/LB1D1 |
Departure
| Time | 2026-05-04 02:27 |
|---|---|
| Airport | Suvarnabhumi Airport (VTBS) |
Arrival
| Time | 2026-05-04 03:34 |
|---|---|
| Airport | Phuket International Airport (VTSP) |
| Time | Latitude | Longitude | Altitude | Speed | Heading |
|---|---|---|---|---|---|
| 2026-05-04 02:21 | 13.68855 | 100.75579 | 21 ft | 0 kts | 104° |
| 2026-05-04 02:24 | 13.68844 | 100.75618 | 18 ft | 7 kts | 105° |
| 2026-05-04 02:24 | 13.68832 | 100.75664 | 19 ft | 7 kts | 103° |
| 2026-05-04 02:24 | 13.68822 | 100.75712 | 18 ft | 7 kts | 102° |
| 2026-05-04 02:24 | 13.68814 | 100.75743 | 18 ft | 7 kts | 104° |
| 2026-05-04 02:25 | 13.68830 | 100.75817 | 19 ft | 14 kts | 39° |
| 2026-05-04 02:25 | 13.68891 | 100.75841 | 18 ft | 14 kts | 16° |
| 2026-05-04 02:25 | 13.69021 | 100.75875 | 18 ft | 14 kts | 14° |
| 2026-05-04 02:25 | 13.69076 | 100.75908 | 19 ft | 14 kts | 56° |
| 2026-05-04 02:26 | 13.69069 | 100.76008 | 17 ft | 14 kts | 104° |
| 2026-05-04 02:26 | 13.68993 | 100.76058 | 18 ft | 11 kts | 189° |
| 2026-05-04 02:26 | 13.68978 | 100.76054 | 18 ft | 8 kts | 195° |
| 2026-05-04 02:26 | 13.68561 | 100.75944 | 20 ft | 119 kts | 194° |
| 2026-05-04 02:27 | 13.67436 | 100.75643 | 130 ft | 203 kts | 195° |
| 2026-05-04 02:27 | 13.66067 | 100.75193 | 1380 ft | 202 kts | 193° |
| 2026-05-04 02:27 | 13.64646 | 100.75086 | 2690 ft | 212 kts | 178° |
| 2026-05-04 02:27 | 13.63121 | 100.75126 | 3386 ft | 229 kts | 177° |
| 2026-05-04 02:28 | 13.61450 | 100.75183 | 3990 ft | 247 kts | 177° |
| 2026-05-04 02:28 | 13.59723 | 100.75328 | 4838 ft | 252 kts | 166° |
| 2026-05-04 02:28 | 13.58109 | 100.76030 | 5607 ft | 254 kts | 156° |
| 2026-05-04 02:28 | 13.56395 | 100.76586 | 6386 ft | 261 kts | 166° |
| 2026-05-04 02:29 | 13.54628 | 100.77028 | 7393 ft | 262 kts | 166° |
| 2026-05-04 02:29 | 13.52848 | 100.77496 | 8346 ft | 266 kts | 165° |
| 2026-05-04 02:29 | 13.51047 | 100.77992 | 9199 ft | 271 kts | 164° |
| 2026-05-04 02:29 | 13.49211 | 100.78498 | 9712 ft | 274 kts | 167° |
| 2026-05-04 02:30 | 13.47294 | 100.78537 | 9766 ft | 279 kts | 191° |
| 2026-05-04 02:30 | 13.45418 | 100.78031 | 9785 ft | 280 kts | 193° |
| 2026-05-04 02:30 | 13.43623 | 100.77298 | 9780 ft | 282 kts | 212° |
| 2026-05-04 02:30 | 13.42267 | 100.75828 | 9785 ft | 289 kts | 236° |
| 2026-05-04 02:31 | 13.41552 | 100.73903 | 9776 ft | 290 kts | 258° |
| 2026-05-04 02:31 | 13.41331 | 100.71844 | 9799 ft | 292 kts | 262° |
| 2026-05-04 02:31 | 13.41150 | 100.69755 | 9787 ft | 295 kts | 262° |
| 2026-05-04 02:31 | 13.40968 | 100.67649 | 9786 ft | 297 kts | 262° |
| 2026-05-04 02:32 | 13.40780 | 100.65530 | 9787 ft | 298 kts | 262° |
| 2026-05-04 02:32 | 13.40584 | 100.63410 | 9784 ft | 298 kts | 261° |
| 2026-05-04 02:32 | 13.40385 | 100.61321 | 9780 ft | 297 kts | 261° |
| 2026-05-04 02:32 | 13.40178 | 100.59182 | 9779 ft | 296 kts | 261° |
| 2026-05-04 02:33 | 13.39977 | 100.57107 | 9782 ft | 296 kts | 261° |
| 2026-05-04 02:33 | 13.39587 | 100.55085 | 9773 ft | 284 kts | 243° |
| 2026-05-04 02:33 | 13.38464 | 100.53446 | 10078 ft | 283 kts | 221° |
| 2026-05-04 02:33 | 13.36978 | 100.52084 | 10870 ft | 288 kts | 218° |
| 2026-05-04 02:34 | 13.35455 | 100.50732 | 11804 ft | 290 kts | 218° |
| 2026-05-04 02:34 | 13.33917 | 100.49371 | 12725 ft | 294 kts | 218° |
| 2026-05-04 02:34 | 13.32360 | 100.47990 | 13644 ft | 298 kts | 218° |
| 2026-05-04 02:34 | 13.30780 | 100.46585 | 14577 ft | 303 kts | 218° |
| 2026-05-04 02:35 | 13.29177 | 100.45154 | 15379 ft | 307 kts | 218° |
| 2026-05-04 02:35 | 13.27553 | 100.43702 | 15787 ft | 311 kts | 218° |
| 2026-05-04 02:35 | 13.25908 | 100.42229 | 15781 ft | 315 kts | 218° |
| 2026-05-04 02:35 | 13.24265 | 100.40756 | 15785 ft | 312 kts | 218° |
| 2026-05-04 02:36 | 13.22638 | 100.39297 | 15778 ft | 310 kts | 218° |
| 2026-05-04 02:36 | 13.21014 | 100.37843 | 15785 ft | 310 kts | 218° |
| 2026-05-04 02:36 | 13.19372 | 100.36375 | 16254 ft | 316 kts | 218° |
| 2026-05-04 02:36 | 13.17712 | 100.34891 | 17155 ft | 317 kts | 218° |
| 2026-05-04 02:37 | 13.16039 | 100.33394 | 17697 ft | 320 kts | 218° |
| 2026-05-04 02:37 | 13.14355 | 100.31887 | 17787 ft | 323 kts | 219° |
| 2026-05-04 02:37 | 13.12661 | 100.30371 | 17786 ft | 322 kts | 219° |
| 2026-05-04 02:37 | 13.10980 | 100.28867 | 17782 ft | 320 kts | 219° |
| 2026-05-04 02:38 | 13.09300 | 100.27364 | 17781 ft | 320 kts | 218° |
| 2026-05-04 02:38 | 13.07620 | 100.25862 | 17787 ft | 321 kts | 218° |
| 2026-05-04 02:38 | 13.05960 | 100.24378 | 17786 ft | 321 kts | 218° |
| 2026-05-04 02:38 | 13.04264 | 100.22863 | 18146 ft | 326 kts | 219° |
| 2026-05-04 02:39 | 13.02548 | 100.21331 | 19034 ft | 328 kts | 219° |
| 2026-05-04 02:39 | 13.00829 | 100.19795 | 19937 ft | 329 kts | 219° |
| 2026-05-04 02:39 | 12.99115 | 100.18217 | 20729 ft | 334 kts | 221° |
| 2026-05-04 02:39 | 12.97451 | 100.16525 | 21454 ft | 339 kts | 223° |
| 2026-05-04 02:40 | 12.95794 | 100.14778 | 22162 ft | 344 kts | 223° |
| 2026-05-04 02:40 | 12.94124 | 100.13007 | 22858 ft | 347 kts | 224° |
| 2026-05-04 02:40 | 12.92432 | 100.11219 | 23517 ft | 351 kts | 223° |
| 2026-05-04 02:40 | 12.90719 | 100.09417 | 24169 ft | 355 kts | 223° |
| 2026-05-04 02:41 | 12.88983 | 100.07598 | 24798 ft | 359 kts | 223° |
| 2026-05-04 02:41 | 12.87225 | 100.05763 | 25408 ft | 363 kts | 223° |
| 2026-05-04 02:41 | 12.85446 | 100.03908 | 26018 ft | 366 kts | 223° |
| 2026-05-04 02:41 | 12.83652 | 100.02038 | 26626 ft | 370 kts | 223° |
| 2026-05-04 02:42 | 12.81838 | 100.00151 | 27208 ft | 374 kts | 223° |
| 2026-05-04 02:42 | 12.80070 | 99.98311 | 27767 ft | 377 kts | 223° |
| 2026-05-04 02:42 | 12.78223 | 99.96390 | 28331 ft | 381 kts | 223° |
| 2026-05-04 02:42 | 12.76356 | 99.94448 | 28884 ft | 384 kts | 223° |
| 2026-05-04 02:43 | 12.74471 | 99.92489 | 29429 ft | 388 kts | 223° |
| 2026-05-04 02:43 | 12.72571 | 99.90514 | 29948 ft | 391 kts | 223° |
| 2026-05-04 02:43 | 12.70652 | 99.88520 | 30457 ft | 394 kts | 223° |
| 2026-05-04 02:43 | 12.68720 | 99.86511 | 30955 ft | 398 kts | 223° |
| 2026-05-04 02:44 | 12.66772 | 99.84487 | 31450 ft | 401 kts | 223° |
| 2026-05-04 02:44 | 12.64807 | 99.82445 | 31909 ft | 404 kts | 223° |
| 2026-05-04 02:44 | 12.62823 | 99.80386 | 32377 ft | 407 kts | 223° |
| 2026-05-04 02:44 | 12.60819 | 99.78329 | 32804 ft | 407 kts | 220° |
| 2026-05-04 02:45 | 12.58461 | 99.76738 | 33085 ft | 409 kts | 201° |
| 2026-05-04 02:45 | 12.55732 | 99.75949 | 33466 ft | 409 kts | 185° |
| 2026-05-04 02:45 | 12.52894 | 99.75848 | 33859 ft | 409 kts | 179° |
| 2026-05-04 02:45 | 12.50032 | 99.75871 | 34245 ft | 413 kts | 178° |
| 2026-05-04 02:46 | 12.47148 | 99.75917 | 34637 ft | 415 kts | 178° |
| 2026-05-04 02:46 | 12.44249 | 99.75961 | 35035 ft | 418 kts | 178° |
| 2026-05-04 02:46 | 12.41335 | 99.75993 | 35407 ft | 420 kts | 179° |
| 2026-05-04 02:46 | 12.38399 | 99.76014 | 35760 ft | 423 kts | 179° |
| 2026-05-04 02:47 | 12.35445 | 99.76027 | 36104 ft | 426 kts | 179° |
| 2026-05-04 02:47 | 12.32473 | 99.76033 | 36427 ft | 428 kts | 179° |
| 2026-05-04 02:47 | 12.29482 | 99.76038 | 36721 ft | 431 kts | 179° |
| 2026-05-04 02:47 | 12.26467 | 99.76041 | 37008 ft | 434 kts | 179° |
| 2026-05-04 02:48 | 12.23438 | 99.76043 | 37282 ft | 437 kts | 179° |
| 2026-05-04 02:48 | 12.20385 | 99.76046 | 37557 ft | 440 kts | 179° |
| 2026-05-04 02:48 | 12.17353 | 99.76049 | 37707 ft | 445 kts | 179° |
| 2026-05-04 02:48 | 12.14248 | 99.76053 | 37757 ft | 448 kts | 179° |
| 2026-05-04 02:49 | 12.08044 | 99.76059 | 37772 ft | 442 kts | 179° |
| 2026-05-04 02:49 | 12.01912 | 99.76066 | 37789 ft | 441 kts | 179° |
| 2026-05-04 02:50 | 11.95791 | 99.76073 | 37786 ft | 442 kts | 179° |
| 2026-05-04 02:50 | 11.89635 | 99.76081 | 37783 ft | 443 kts | 179° |
| 2026-05-04 02:51 | 11.83471 | 99.76088 | 37785 ft | 443 kts | 179° |
| 2026-05-04 02:51 | 11.77304 | 99.76095 | 37784 ft | 443 kts | 179° |
| 2026-05-04 02:52 | 11.71133 | 99.76102 | 37784 ft | 443 kts | 179° |
| 2026-05-04 02:52 | 11.64967 | 99.76113 | 37783 ft | 443 kts | 179° |
| 2026-05-04 02:53 | 11.58810 | 99.76124 | 37783 ft | 442 kts | 179° |
| 2026-05-04 02:53 | 11.52655 | 99.76134 | 37783 ft | 442 kts | 179° |
| 2026-05-04 02:54 | 11.46502 | 99.76145 | 37783 ft | 442 kts | 179° |
| 2026-05-04 02:54 | 11.40356 | 99.76155 | 37784 ft | 442 kts | 179° |
| 2026-05-04 02:55 | 11.31131 | 99.76171 | 37784 ft | 442 kts | 179° |
| 2026-05-04 02:56 | 11.24980 | 99.76182 | 37784 ft | 442 kts | 179° |
| 2026-05-04 02:56 | 11.18822 | 99.76192 | 37784 ft | 442 kts | 179° |
| 2026-05-04 02:57 | 11.12702 | 99.75600 | 37789 ft | 443 kts | 190° |
| 2026-05-04 02:57 | 11.06743 | 99.73953 | 37786 ft | 444 kts | 196° |
| 2026-05-04 02:58 | 11.00847 | 99.72063 | 37783 ft | 445 kts | 196° |
| 2026-05-04 02:58 | 10.94997 | 99.70194 | 37784 ft | 445 kts | 196° |
| 2026-05-04 02:59 | 10.89083 | 99.68329 | 37784 ft | 445 kts | 196° |
| 2026-05-04 02:59 | 10.83167 | 99.66475 | 37783 ft | 445 kts | 196° |
| 2026-05-04 03:00 | 10.77253 | 99.64625 | 37784 ft | 445 kts | 196° |
| 2026-05-04 03:00 | 10.71339 | 99.62776 | 37783 ft | 445 kts | 196° |
| 2026-05-04 03:01 | 10.65427 | 99.60927 | 37784 ft | 444 kts | 196° |
| 2026-05-04 03:01 | 10.59514 | 99.59078 | 37784 ft | 444 kts | 196° |
| 2026-05-04 03:02 | 10.53605 | 99.57232 | 37783 ft | 444 kts | 196° |
| 2026-05-04 03:02 | 10.47691 | 99.55385 | 37784 ft | 444 kts | 196° |
| 2026-05-04 03:03 | 10.41779 | 99.53538 | 37783 ft | 444 kts | 196° |
| 2026-05-04 03:03 | 10.35865 | 99.51693 | 37784 ft | 444 kts | 196° |
| 2026-05-04 03:04 | 10.29955 | 99.49849 | 37784 ft | 444 kts | 196° |
| 2026-05-04 03:04 | 10.24044 | 99.48005 | 37783 ft | 445 kts | 196° |
| 2026-05-04 03:05 | 10.18128 | 99.46161 | 37783 ft | 444 kts | 196° |
| 2026-05-04 03:05 | 10.12217 | 99.44319 | 37784 ft | 445 kts | 196° |
| 2026-05-04 03:06 | 10.06306 | 99.42477 | 37783 ft | 445 kts | 196° |
| 2026-05-04 03:06 | 10.00391 | 99.40635 | 37784 ft | 445 kts | 196° |
| 2026-05-04 03:07 | 9.94490 | 99.38798 | 37784 ft | 445 kts | 196° |
| 2026-05-04 03:07 | 9.88577 | 99.36958 | 37783 ft | 444 kts | 196° |
| 2026-05-04 03:07 | 9.85692 | 99.36060 | 37660 ft | 420 kts | 196° |
| 2026-05-04 03:08 | 9.82975 | 99.35212 | 37081 ft | 401 kts | 195° |
| 2026-05-04 03:08 | 9.80318 | 99.34385 | 35950 ft | 398 kts | 195° |
| 2026-05-04 03:08 | 9.77659 | 99.33560 | 35055 ft | 403 kts | 195° |
| 2026-05-04 03:08 | 9.74982 | 99.32729 | 34590 ft | 402 kts | 195° |
| 2026-05-04 03:09 | 9.72321 | 99.31903 | 34152 ft | 399 kts | 195° |
| 2026-05-04 03:09 | 9.69684 | 99.31083 | 33657 ft | 397 kts | 195° |
| 2026-05-04 03:09 | 9.67048 | 99.30264 | 33141 ft | 397 kts | 195° |
| 2026-05-04 03:09 | 9.64451 | 99.29457 | 32682 ft | 395 kts | 195° |
| 2026-05-04 03:10 | 9.61844 | 99.28647 | 32216 ft | 393 kts | 195° |
| 2026-05-04 03:10 | 9.59229 | 99.27835 | 31759 ft | 391 kts | 195° |
| 2026-05-04 03:10 | 9.56648 | 99.27033 | 31453 ft | 385 kts | 195° |
| 2026-05-04 03:10 | 9.54101 | 99.26242 | 31094 ft | 381 kts | 195° |
| 2026-05-04 03:11 | 9.51574 | 99.25458 | 30695 ft | 378 kts | 195° |
| 2026-05-04 03:11 | 9.49066 | 99.24680 | 30294 ft | 376 kts | 195° |
| 2026-05-04 03:11 | 9.46579 | 99.23909 | 29995 ft | 371 kts | 195° |
| 2026-05-04 03:11 | 9.44134 | 99.23150 | 29711 ft | 365 kts | 195° |
| 2026-05-04 03:12 | 9.41709 | 99.22398 | 29296 ft | 364 kts | 195° |
| 2026-05-04 03:12 | 9.39292 | 99.21649 | 28930 ft | 362 kts | 195° |
| 2026-05-04 03:12 | 9.36893 | 99.20905 | 28586 ft | 359 kts | 195° |
| 2026-05-04 03:12 | 9.34480 | 99.20157 | 28462 ft | 370 kts | 195° |
| 2026-05-04 03:13 | 9.31958 | 99.19377 | 28490 ft | 388 kts | 195° |
| 2026-05-04 03:13 | 9.29320 | 99.18560 | 28608 ft | 399 kts | 195° |
| 2026-05-04 03:13 | 9.27589 | 99.18023 | 28856 ft | 387 kts | 195° |
| 2026-05-04 03:14 | 9.22535 | 99.16453 | 28926 ft | 376 kts | 195° |
| 2026-05-04 03:14 | 9.17562 | 99.14913 | 28722 ft | 373 kts | 195° |
| 2026-05-04 03:14 | 9.15103 | 99.14090 | 28592 ft | 373 kts | 201° |
| 2026-05-04 03:15 | 9.12772 | 99.12942 | 28515 ft | 372 kts | 207° |
| 2026-05-04 03:15 | 9.10566 | 99.11547 | 28263 ft | 377 kts | 214° |
| 2026-05-04 03:15 | 9.08497 | 99.09914 | 28131 ft | 376 kts | 217° |
| 2026-05-04 03:16 | 9.04456 | 99.06562 | 27924 ft | 376 kts | 217° |
| 2026-05-04 03:16 | 9.02433 | 99.04880 | 27717 ft | 377 kts | 217° |
| 2026-05-04 03:16 | 9.00406 | 99.03204 | 27671 ft | 375 kts | 217° |
| 2026-05-04 03:16 | 8.98400 | 99.01552 | 27585 ft | 374 kts | 217° |
| 2026-05-04 03:17 | 8.96432 | 98.99938 | 27538 ft | 372 kts | 217° |
| 2026-05-04 03:17 | 8.94449 | 98.98313 | 27449 ft | 374 kts | 217° |
| 2026-05-04 03:17 | 8.92376 | 98.96619 | 27465 ft | 388 kts | 217° |
| 2026-05-04 03:17 | 8.90288 | 98.94911 | 27406 ft | 385 kts | 217° |
| 2026-05-04 03:18 | 8.88214 | 98.93212 | 27350 ft | 382 kts | 217° |
| 2026-05-04 03:18 | 8.86154 | 98.91526 | 27337 ft | 380 kts | 217° |
| 2026-05-04 03:18 | 8.84105 | 98.89849 | 27323 ft | 377 kts | 217° |
| 2026-05-04 03:18 | 8.82073 | 98.88188 | 27098 ft | 375 kts | 217° |
| 2026-05-04 03:19 | 8.80044 | 98.86530 | 26360 ft | 374 kts | 217° |
| 2026-05-04 03:19 | 8.78036 | 98.84897 | 25503 ft | 366 kts | 217° |
| 2026-05-04 03:19 | 8.76068 | 98.83301 | 24552 ft | 360 kts | 217° |
| 2026-05-04 03:19 | 8.74137 | 98.81736 | 23573 ft | 352 kts | 217° |
| 2026-05-04 03:20 | 8.72247 | 98.80204 | 22613 ft | 344 kts | 216° |
| 2026-05-04 03:20 | 8.70395 | 98.78703 | 21649 ft | 338 kts | 216° |
| 2026-05-04 03:20 | 8.68578 | 98.77230 | 20681 ft | 332 kts | 216° |
| 2026-05-04 03:20 | 8.66789 | 98.75780 | 19712 ft | 327 kts | 216° |
| 2026-05-04 03:21 | 8.65025 | 98.74350 | 18750 ft | 323 kts | 216° |
| 2026-05-04 03:21 | 8.63283 | 98.72939 | 17699 ft | 321 kts | 216° |
| 2026-05-04 03:21 | 8.61544 | 98.71530 | 16576 ft | 320 kts | 216° |
| 2026-05-04 03:21 | 8.59838 | 98.70148 | 15468 ft | 317 kts | 216° |
| 2026-05-04 03:22 | 8.58127 | 98.68762 | 14343 ft | 314 kts | 216° |
| 2026-05-04 03:22 | 8.56436 | 98.67391 | 13243 ft | 310 kts | 216° |
| 2026-05-04 03:22 | 8.54762 | 98.66034 | 12121 ft | 307 kts | 216° |
| 2026-05-04 03:22 | 8.53107 | 98.64693 | 11005 ft | 303 kts | 216° |
| 2026-05-04 03:23 | 8.51470 | 98.63368 | 9876 ft | 300 kts | 216° |
| 2026-05-04 03:23 | 8.49836 | 98.62087 | 8864 ft | 293 kts | 211° |
| 2026-05-04 03:23 | 8.48195 | 98.61055 | 8878 ft | 271 kts | 208° |
| 2026-05-04 03:23 | 8.46591 | 98.60105 | 8866 ft | 265 kts | 207° |
| 2026-05-04 03:24 | 8.44976 | 98.59149 | 8530 ft | 271 kts | 208° |
| 2026-05-04 03:24 | 8.43358 | 98.58179 | 8191 ft | 270 kts | 208° |
| 2026-05-04 03:24 | 8.41754 | 98.57206 | 7876 ft | 268 kts | 208° |
| 2026-05-04 03:24 | 8.40160 | 98.56234 | 7550 ft | 267 kts | 208° |
| 2026-05-04 03:25 | 8.38580 | 98.55268 | 7234 ft | 265 kts | 208° |
| 2026-05-04 03:25 | 8.37025 | 98.54319 | 7089 ft | 254 kts | 207° |
| 2026-05-04 03:25 | 8.35405 | 98.53758 | 6871 ft | 246 kts | 183° |
| 2026-05-04 03:25 | 8.33717 | 98.53840 | 6608 ft | 241 kts | 173° |
| 2026-05-04 03:26 | 8.32051 | 98.54007 | 6327 ft | 240 kts | 173° |
| 2026-05-04 03:26 | 8.30399 | 98.54168 | 6050 ft | 238 kts | 173° |
| 2026-05-04 03:26 | 8.28755 | 98.54327 | 5775 ft | 236 kts | 173° |
| 2026-05-04 03:26 | 8.27125 | 98.54482 | 5503 ft | 235 kts | 173° |
| 2026-05-04 03:27 | 8.25506 | 98.54635 | 5232 ft | 233 kts | 173° |
| 2026-05-04 03:27 | 8.23898 | 98.54787 | 4959 ft | 231 kts | 173° |
| 2026-05-04 03:27 | 8.22300 | 98.54939 | 4673 ft | 230 kts | 174° |
| 2026-05-04 03:27 | 8.20707 | 98.55089 | 4436 ft | 228 kts | 174° |
| 2026-05-04 03:28 | 8.19159 | 98.55235 | 4322 ft | 219 kts | 174° |
| 2026-05-04 03:28 | 8.17673 | 98.55374 | 4218 ft | 210 kts | 174° |
| 2026-05-04 03:28 | 8.16251 | 98.55508 | 4116 ft | 200 kts | 173° |
| 2026-05-04 03:28 | 8.14881 | 98.55459 | 4028 ft | 199 kts | 197° |
| 2026-05-04 03:29 | 8.13743 | 98.54632 | 3878 ft | 212 kts | 232° |
| 2026-05-04 03:29 | 8.13199 | 98.53228 | 3715 ft | 220 kts | 252° |
| 2026-05-04 03:29 | 8.12886 | 98.51727 | 3425 ft | 221 kts | 256° |
| 2026-05-04 03:29 | 8.12682 | 98.50191 | 3157 ft | 221 kts | 260° |
| 2026-05-04 03:30 | 8.12566 | 98.48666 | 2970 ft | 215 kts | 262° |
| 2026-05-04 03:30 | 8.12468 | 98.47188 | 2849 ft | 205 kts | 262° |
| 2026-05-04 03:30 | 8.12375 | 98.45793 | 2734 ft | 195 kts | 261° |
| 2026-05-04 03:30 | 8.12281 | 98.44438 | 2457 ft | 191 kts | 261° |
| 2026-05-04 03:31 | 8.12191 | 98.43125 | 2167 ft | 185 kts | 261° |
| 2026-05-04 03:31 | 8.12103 | 98.41848 | 1909 ft | 181 kts | 261° |
| 2026-05-04 03:31 | 8.12019 | 98.40616 | 1667 ft | 168 kts | 261° |
| 2026-05-04 03:31 | 8.11940 | 98.39506 | 1498 ft | 148 kts | 259° |
| 2026-05-04 03:32 | 8.11902 | 98.38478 | 1447 ft | 148 kts | 263° |
| 2026-05-04 03:32 | 8.11876 | 98.37442 | 1224 ft | 147 kts | 261° |
| 2026-05-04 03:32 | 8.11789 | 98.36410 | 927 ft | 148 kts | 258° |
| 2026-05-04 03:32 | 8.11675 | 98.35411 | 728 ft | 139 kts | 257° |
| 2026-05-04 03:33 | 8.11585 | 98.34434 | 447 ft | 141 kts | 259° |
| 2026-05-04 03:33 | 8.11497 | 98.33476 | 238 ft | 133 kts | 260° |
| 2026-05-04 03:33 | 8.11414 | 98.32576 | 102 ft | 126 kts | 261° |
| 2026-05-04 03:33 | 8.11333 | 98.31800 | 53 ft | 93 kts | 264° |
| 2026-05-04 03:34 | 8.11291 | 98.31345 | 36 ft | 39 kts | 264° |
| 2026-05-04 03:34 | 8.11260 | 98.31197 | 35 ft | 15 kts | 246° |
| 2026-05-04 03:34 | 8.11208 | 98.31106 | 34 ft | 15 kts | 236° |
| 2026-05-04 03:34 | 8.11160 | 98.31038 | 34 ft | 9 kts | 234° |
| 2026-05-04 03:35 | 8.11134 | 98.31042 | 34 ft | 8 kts | 129° |
| 2026-05-04 03:35 | 8.11131 | 98.31113 | 34 ft | 11 kts | 84° |
| 2026-05-04 03:35 | 8.11139 | 98.31186 | 35 ft | 11 kts | 84° |
| 2026-05-04 03:35 | 8.11146 | 98.31260 | 36 ft | 11 kts | 84° |
| 2026-05-04 03:36 | 8.11153 | 98.31333 | 37 ft | 11 kts | 84° |
| 2026-05-04 03:36 | 8.11157 | 98.31376 | 38 ft | 0 kts | 84° |
| 2026-05-04 03:37 | 8.11165 | 98.31460 | 41 ft | 16 kts | 85° |